sensor_id;sensor_type;location;lat;lon;timestamp;temperature;humidity
2851;DHT22;1433;49.976;8.342;2023-07-02T00:01:45;17.70;99.90
2851;DHT22;1433;49.976;8.342;2023-07-02T00:04:12;17.70;99.90
2851;DHT22;1433;49.976;8.342;2023-07-02T00:06:41;17.70;99.90
2851;DHT22;1433;49.976;8.342;2023-07-02T00:09:08;17.70;99.90
2851;DHT22;1433;49.976;8.342;2023-07-02T00:11:41;17.60;99.90
2851;DHT22;1433;49.976;8.342;2023-07-02T00:14:09;17.60;99.90
2851;DHT22;1433;49.976;8.342;2023-07-02T00:16:38;17.50;99.90
2851;DHT22;1433;49.976;8.342;2023-07-02T00:19:05;17.50;99.90
2851;DHT22;1433;49.976;8.342;2023-07-02T00:21:31;17.40;99.90
2851;DHT22;1433;49.976;8.342;2023-07-02T00:24:00;17.30;99.90
2851;DHT22;1433;49.976;8.342;2023-07-02T00:26:27;17.10;99.90
2851;DHT22;1433;49.976;8.342;2023-07-02T00:28:54;17.00;99.90
2851;DHT22;1433;49.976;8.342;2023-07-02T00:31:20;17.00;99.90
2851;DHT22;1433;49.976;8.342;2023-07-02T00:33:47;16.90;99.90
2851;DHT22;1433;49.976;8.342;2023-07-02T00:36:13;16.90;99.90
2851;DHT22;1433;49.976;8.342;2023-07-02T00:38:44;16.80;99.90
2851;DHT22;1433;49.976;8.342;2023-07-02T00:41:11;16.70;99.90
2851;DHT22;1433;49.976;8.342;2023-07-02T00:43:38;16.70;99.90
2851;DHT22;1433;49.976;8.342;2023-07-02T00:46:16;16.60;99.90
2851;DHT22;1433;49.976;8.342;2023-07-02T00:48:50;16.60;99.90
2851;DHT22;1433;49.976;8.342;2023-07-02T00:51:22;16.60;99.90
2851;DHT22;1433;49.976;8.342;2023-07-02T00:53:50;16.60;99.90
2851;DHT22;1433;49.976;8.342;2023-07-02T00:56:17;16.50;99.90
2851;DHT22;1433;49.976;8.342;2023-07-02T00:58:46;16.50;99.90
2851;DHT22;1433;49.976;8.342;2023-07-02T01:01:24;16.50;99.90
2851;DHT22;1433;49.976;8.342;2023-07-02T01:04:05;16.50;99.90
2851;DHT22;1433;49.976;8.342;2023-07-02T01:06:27;16.40;99.90
2851;DHT22;1433;49.976;8.342;2023-07-02T01:08:58;16.40;99.90
2851;DHT22;1433;49.976;8.342;2023-07-02T01:11:34;16.40;99.90
2851;DHT22;1433;49.976;8.342;2023-07-02T01:16:48;16.30;99.90
2851;DHT22;1433;49.976;8.342;2023-07-02T01:19:39;16.20;99.90
2851;DHT22;1433;49.976;8.342;2023-07-02T01:22:06;16.10;99.90
2851;DHT22;1433;49.976;8.342;2023-07-02T01:24:38;16.10;99.90
2851;DHT22;1433;49.976;8.342;2023-07-02T01:27:05;16.00;99.90
2851;DHT22;1433;49.976;8.342;2023-07-02T01:29:31;15.90;99.90
2851;DHT22;1433;49.976;8.342;2023-07-02T01:31:57;15.80;99.90
2851;DHT22;1433;49.976;8.342;2023-07-02T01:34:24;15.70;99.90
2851;DHT22;1433;49.976;8.342;2023-07-02T01:36:50;15.60;99.90
2851;DHT22;1433;49.976;8.342;2023-07-02T01:39:16;15.50;99.90
2851;DHT22;1433;49.976;8.342;2023-07-02T01:41:51;15.40;99.90
2851;DHT22;1433;49.976;8.342;2023-07-02T01:44:19;15.30;99.90
2851;DHT22;1433;49.976;8.342;2023-07-02T01:46:46;15.20;99.90
2851;DHT22;1433;49.976;8.342;2023-07-02T01:49:16;15.20;99.90
2851;DHT22;1433;49.976;8.342;2023-07-02T01:51:49;15.10;99.90
2851;DHT22;1433;49.976;8.342;2023-07-02T01:54:16;15.00;99.90
2851;DHT22;1433;49.976;8.342;2023-07-02T01:56:42;14.90;99.90
2851;DHT22;1433;49.976;8.342;2023-07-02T01:59:09;14.80;99.90
2851;DHT22;1433;49.976;8.342;2023-07-02T02:01:35;14.70;99.90
2851;DHT22;1433;49.976;8.342;2023-07-02T02:04:01;14.70;99.90
2851;DHT22;1433;49.976;8.342;2023-07-02T02:06:27;14.60;99.90
2851;DHT22;1433;49.976;8.342;2023-07-02T02:08:53;14.70;99.90
2851;DHT22;1433;49.976;8.342;2023-07-02T02:11:19;14.70;99.90
2851;DHT22;1433;49.976;8.342;2023-07-02T02:13:46;14.80;99.90
2851;DHT22;1433;49.976;8.342;2023-07-02T02:16:12;14.90;99.90
2851;DHT22;1433;49.976;8.342;2023-07-02T02:18:38;14.90;99.90
2851;DHT22;1433;49.976;8.342;2023-07-02T02:21:05;14.90;99.90
2851;DHT22;1433;49.976;8.342;2023-07-02T02:23:31;15.00;99.90
2851;DHT22;1433;49.976;8.342;2023-07-02T02:25:57;15.10;99.90
2851;DHT22;1433;49.976;8.342;2023-07-02T02:28:24;15.10;99.90
2851;DHT22;1433;49.976;8.342;2023-07-02T02:30:50;15.10;99.90
2851;DHT22;1433;49.976;8.342;2023-07-02T02:33:17;15.00;99.90
2851;DHT22;1433;49.976;8.342;2023-07-02T02:35:43;15.00;99.90
2851;DHT22;1433;49.976;8.342;2023-07-02T02:38:10;14.90;99.90
2851;DHT22;1433;49.976;8.342;2023-07-02T02:40:36;14.80;99.90
2851;DHT22;1433;49.976;8.342;2023-07-02T02:43:05;14.80;99.90
2851;DHT22;1433;49.976;8.342;2023-07-02T02:45:31;14.70;99.90
2851;DHT22;1433;49.976;8.342;2023-07-02T02:47:58;14.60;99.90
2851;DHT22;1433;49.976;8.342;2023-07-02T02:50:24;14.60;99.90
2851;DHT22;1433;49.976;8.342;2023-07-02T02:52:50;14.60;99.90
2851;DHT22;1433;49.976;8.342;2023-07-02T02:55:17;14.60;99.90
2851;DHT22;1433;49.976;8.342;2023-07-02T02:57:43;14.60;99.90
2851;DHT22;1433;49.976;8.342;2023-07-02T03:00:17;14.60;99.90
2851;DHT22;1433;49.976;8.342;2023-07-02T03:02:43;14.50;99.90
2851;DHT22;1433;49.976;8.342;2023-07-02T03:05:10;14.50;99.90
2851;DHT22;1433;49.976;8.342;2023-07-02T03:07:36;14.50;99.90
2851;DHT22;1433;49.976;8.342;2023-07-02T03:10:03;14.50;99.90
2851;DHT22;1433;49.976;8.342;2023-07-02T03:12:29;14.50;99.90
2851;DHT22;1433;49.976;8.342;2023-07-02T03:14:55;14.60;99.90
2851;DHT22;1433;49.976;8.342;2023-07-02T03:17:22;14.60;99.90
2851;DHT22;1433;49.976;8.342;2023-07-02T03:19:48;14.70;99.90
2851;DHT22;1433;49.976;8.342;2023-07-02T03:22:14;14.60;99.90
2851;DHT22;1433;49.976;8.342;2023-07-02T03:24:41;14.60;99.90
2851;DHT22;1433;49.976;8.342;2023-07-02T03:27:07;14.70;99.90
2851;DHT22;1433;49.976;8.342;2023-07-02T03:29:34;14.80;99.90
2851;DHT22;1433;49.976;8.342;2023-07-02T03:32:02;14.80;99.90
2851;DHT22;1433;49.976;8.342;2023-07-02T03:34:28;14.90;99.90
2851;DHT22;1433;49.976;8.342;2023-07-02T03:36:54;14.90;99.90
2851;DHT22;1433;49.976;8.342;2023-07-02T03:39:21;15.00;99.90
2851;DHT22;1433;49.976;8.342;2023-07-02T03:41:47;15.10;99.90
2851;DHT22;1433;49.976;8.342;2023-07-02T03:44:13;15.10;99.90
2851;DHT22;1433;49.976;8.342;2023-07-02T03:46:40;15.20;99.90
2851;DHT22;1433;49.976;8.342;2023-07-02T03:49:06;15.30;99.90
2851;DHT22;1433;49.976;8.342;2023-07-02T03:51:32;15.30;99.90
2851;DHT22;1433;49.976;8.342;2023-07-02T03:53:58;15.30;99.90
2851;DHT22;1433;49.976;8.342;2023-07-02T03:56:25;15.40;99.90
2851;DHT22;1433;49.976;8.342;2023-07-02T03:58:52;15.40;99.90
2851;DHT22;1433;49.976;8.342;2023-07-02T04:01:18;15.40;99.90
2851;DHT22;1433;49.976;8.342;2023-07-02T04:03:49;15.50;99.90
2851;DHT22;1433;49.976;8.342;2023-07-02T04:06:16;15.50;99.90
2851;DHT22;1433;49.976;8.342;2023-07-02T04:08:43;15.50;99.90
2851;DHT22;1433;49.976;8.342;2023-07-02T04:11:11;15.50;99.90
2851;DHT22;1433;49.976;8.342;2023-07-02T04:13:37;15.50;99.90
2851;DHT22;1433;49.976;8.342;2023-07-02T04:16:04;15.50;99.90
2851;DHT22;1433;49.976;8.342;2023-07-02T04:18:30;15.40;99.90
2851;DHT22;1433;49.976;8.342;2023-07-02T04:20:57;15.40;99.90
2851;DHT22;1433;49.976;8.342;2023-07-02T04:23:25;15.40;99.90
2851;DHT22;1433;49.976;8.342;2023-07-02T04:25:51;15.40;99.90
2851;DHT22;1433;49.976;8.342;2023-07-02T04:28:17;15.40;99.90
2851;DHT22;1433;49.976;8.342;2023-07-02T04:30:45;15.30;99.90
2851;DHT22;1433;49.976;8.342;2023-07-02T04:33:12;15.30;99.90
2851;DHT22;1433;49.976;8.342;2023-07-02T04:35:40;15.20;99.90
2851;DHT22;1433;49.976;8.342;2023-07-02T04:38:07;15.30;99.90
2851;DHT22;1433;49.976;8.342;2023-07-02T04:40:34;15.20;99.90
2851;DHT22;1433;49.976;8.342;2023-07-02T04:43:00;15.20;99.90
2851;DHT22;1433;49.976;8.342;2023-07-02T04:45:26;15.20;99.90
2851;DHT22;1433;49.976;8.342;2023-07-02T04:47:54;15.20;99.90
2851;DHT22;1433;49.976;8.342;2023-07-02T04:50:21;15.20;99.90
2851;DHT22;1433;49.976;8.342;2023-07-02T04:52:47;15.20;99.90
2851;DHT22;1433;49.976;8.342;2023-07-02T04:55:13;15.20;99.90
2851;DHT22;1433;49.976;8.342;2023-07-02T04:57:39;15.20;99.90
2851;DHT22;1433;49.976;8.342;2023-07-02T05:00:06;15.20;99.90
2851;DHT22;1433;49.976;8.342;2023-07-02T05:02:34;15.30;99.90
2851;DHT22;1433;49.976;8.342;2023-07-02T05:05:00;15.30;99.90
2851;DHT22;1433;49.976;8.342;2023-07-02T05:07:26;15.30;99.90
2851;DHT22;1433;49.976;8.342;2023-07-02T05:09:53;15.30;99.90
2851;DHT22;1433;49.976;8.342;2023-07-02T05:12:19;15.20;99.90
2851;DHT22;1433;49.976;8.342;2023-07-02T05:14:46;15.20;99.90
2851;DHT22;1433;49.976;8.342;2023-07-02T05:17:18;15.30;99.90
2851;DHT22;1433;49.976;8.342;2023-07-02T05:19:44;15.30;99.90
2851;DHT22;1433;49.976;8.342;2023-07-02T05:22:10;15.30;99.90
2851;DHT22;1433;49.976;8.342;2023-07-02T05:24:36;15.20;99.90
2851;DHT22;1433;49.976;8.342;2023-07-02T05:27:04;15.20;99.90
2851;DHT22;1433;49.976;8.342;2023-07-02T05:29:30;15.20;99.90
2851;DHT22;1433;49.976;8.342;2023-07-02T05:31:57;15.20;99.90
2851;DHT22;1433;49.976;8.342;2023-07-02T05:34:23;15.20;99.90
2851;DHT22;1433;49.976;8.342;2023-07-02T05:36:49;15.30;99.90
2851;DHT22;1433;49.976;8.342;2023-07-02T05:39:15;15.50;99.90
2851;DHT22;1433;49.976;8.342;2023-07-02T05:41:41;15.70;99.90
2851;DHT22;1433;49.976;8.342;2023-07-02T05:44:08;15.80;99.90
2851;DHT22;1433;49.976;8.342;2023-07-02T05:46:34;15.90;99.90
2851;DHT22;1433;49.976;8.342;2023-07-02T05:49:00;16.10;99.90
2851;DHT22;1433;49.976;8.342;2023-07-02T05:51:26;16.20;99.90
2851;DHT22;1433;49.976;8.342;2023-07-02T05:53:52;16.30;99.90
2851;DHT22;1433;49.976;8.342;2023-07-02T05:56:18;16.40;99.90
2851;DHT22;1433;49.976;8.342;2023-07-02T05:58:45;16.70;99.90
2851;DHT22;1433;49.976;8.342;2023-07-02T06:01:11;17.10;99.90
2851;DHT22;1433;49.976;8.342;2023-07-02T06:03:38;17.30;99.90
2851;DHT22;1433;49.976;8.342;2023-07-02T06:06:05;17.60;1.00
2851;DHT22;1433;49.976;8.342;2023-07-02T06:08:31;17.90;1.00
2851;DHT22;1433;49.976;8.342;2023-07-02T06:10:57;18.00;1.00
2851;DHT22;1433;49.976;8.342;2023-07-02T06:13:23;18.20;1.00
2851;DHT22;1433;49.976;8.342;2023-07-02T06:15:49;18.30;99.90
2851;DHT22;1433;49.976;8.342;2023-07-02T06:18:16;18.30;1.00
2851;DHT22;1433;49.976;8.342;2023-07-02T06:20:43;18.30;1.00
2851;DHT22;1433;49.976;8.342;2023-07-02T06:23:09;18.30;1.00
2851;DHT22;1433;49.976;8.342;2023-07-02T06:25:35;18.30;99.90
2851;DHT22;1433;49.976;8.342;2023-07-02T06:28:02;18.10;1.00
2851;DHT22;1433;49.976;8.342;2023-07-02T06:30:28;18.10;1.00
2851;DHT22;1433;49.976;8.342;2023-07-02T06:32:54;18.00;1.00
2851;DHT22;1433;49.976;8.342;2023-07-02T06:35:21;18.10;1.00
2851;DHT22;1433;49.976;8.342;2023-07-02T06:37:47;18.20;1.00
2851;DHT22;1433;49.976;8.342;2023-07-02T06:40:14;18.20;1.00
2851;DHT22;1433;49.976;8.342;2023-07-02T06:42:40;18.10;1.00
2851;DHT22;1433;49.976;8.342;2023-07-02T06:45:08;17.90;1.00
2851;DHT22;1433;49.976;8.342;2023-07-02T06:47:35;17.90;1.00
2851;DHT22;1433;49.976;8.342;2023-07-02T06:50:01;17.90;1.00
2851;DHT22;1433;49.976;8.342;2023-07-02T06:52:28;17.80;1.00
2851;DHT22;1433;49.976;8.342;2023-07-02T06:54:54;17.90;1.00
2851;DHT22;1433;49.976;8.342;2023-07-02T06:57:20;18.00;1.00
2851;DHT22;1433;49.976;8.342;2023-07-02T06:59:46;18.10;1.00
2851;DHT22;1433;49.976;8.342;2023-07-02T07:02:12;18.20;99.90
2851;DHT22;1433;49.976;8.342;2023-07-02T07:04:38;18.30;99.90
2851;DHT22;1433;49.976;8.342;2023-07-02T07:07:05;18.30;99.90
2851;DHT22;1433;49.976;8.342;2023-07-02T07:09:31;18.50;1.00
2851;DHT22;1433;49.976;8.342;2023-07-02T07:11:58;18.60;1.00
2851;DHT22;1433;49.976;8.342;2023-07-02T07:14:24;18.70;99.90
2851;DHT22;1433;49.976;8.342;2023-07-02T07:16:50;18.80;1.00
2851;DHT22;1433;49.976;8.342;2023-07-02T07:19:16;19.00;50.10
2851;DHT22;1433;49.976;8.342;2023-07-02T07:21:43;19.10;1.00
2851;DHT22;1433;49.976;8.342;2023-07-02T07:24:09;19.30;1.00
2851;DHT22;1433;49.976;8.342;2023-07-02T07:26:35;19.30;99.90
2851;DHT22;1433;49.976;8.342;2023-07-02T07:29:03;19.30;99.90
2851;DHT22;1433;49.976;8.342;2023-07-02T07:31:29;19.30;1.00
2851;DHT22;1433;49.976;8.342;2023-07-02T07:33:56;19.50;1.00
2851;DHT22;1433;49.976;8.342;2023-07-02T07:36:22;19.60;1.00
2851;DHT22;1433;49.976;8.342;2023-07-02T07:38:48;19.60;99.90
2851;DHT22;1433;49.976;8.342;2023-07-02T07:41:14;19.70;99.90
2851;DHT22;1433;49.976;8.342;2023-07-02T07:43:40;19.60;99.90
2851;DHT22;1433;49.976;8.342;2023-07-02T07:46:06;19.80;99.90
2851;DHT22;1433;49.976;8.342;2023-07-02T07:48:33;19.90;1.00
2851;DHT22;1433;49.976;8.342;2023-07-02T07:50:59;20.00;1.00
2851;DHT22;1433;49.976;8.342;2023-07-02T07:53:26;20.00;1.00
2851;DHT22;1433;49.976;8.342;2023-07-02T07:55:53;20.20;1.00
2851;DHT22;1433;49.976;8.342;2023-07-02T07:58:19;20.20;99.90
2851;DHT22;1433;49.976;8.342;2023-07-02T08:00:45;20.10;99.90
2851;DHT22;1433;49.976;8.342;2023-07-02T08:03:14;20.20;1.00
2851;DHT22;1433;49.976;8.342;2023-07-02T08:05:41;20.20;1.00
2851;DHT22;1433;49.976;8.342;2023-07-02T08:08:07;20.30;1.00
2851;DHT22;1433;49.976;8.342;2023-07-02T08:10:34;20.40;1.00
2851;DHT22;1433;49.976;8.342;2023-07-02T08:13:00;20.40;1.00
2851;DHT22;1433;49.976;8.342;2023-07-02T08:15:26;20.40;1.00
2851;DHT22;1433;49.976;8.342;2023-07-02T08:17:52;20.40;1.00
2851;DHT22;1433;49.976;8.342;2023-07-02T08:20:20;20.50;99.90
2851;DHT22;1433;49.976;8.342;2023-07-02T08:22:48;20.70;99.90
2851;DHT22;1433;49.976;8.342;2023-07-02T08:25:15;20.70;62.20
2851;DHT22;1433;49.976;8.342;2023-07-02T08:27:43;20.80;1.00
2851;DHT22;1433;49.976;8.342;2023-07-02T08:30:10;21.00;1.00
2851;DHT22;1433;49.976;8.342;2023-07-02T08:32:36;21.10;1.00
2851;DHT22;1433;49.976;8.342;2023-07-02T08:35:03;21.30;1.00
2851;DHT22;1433;49.976;8.342;2023-07-02T08:37:29;21.50;99.90
2851;DHT22;1433;49.976;8.342;2023-07-02T08:39:55;21.80;1.00
2851;DHT22;1433;49.976;8.342;2023-07-02T08:42:22;21.70;1.00
2851;DHT22;1433;49.976;8.342;2023-07-02T08:44:53;21.60;1.00
2851;DHT22;1433;49.976;8.342;2023-07-02T08:47:18;21.60;1.00
2851;DHT22;1433;49.976;8.342;2023-07-02T08:49:44;21.50;1.00
2851;DHT22;1433;49.976;8.342;2023-07-02T08:52:10;21.60;1.00
2851;DHT22;1433;49.976;8.342;2023-07-02T08:54:36;21.70;1.00
2851;DHT22;1433;49.976;8.342;2023-07-02T08:57:04;21.90;1.00
2851;DHT22;1433;49.976;8.342;2023-07-02T08:59:31;22.00;1.00
2851;DHT22;1433;49.976;8.342;2023-07-02T09:01:57;22.00;1.00
2851;DHT22;1433;49.976;8.342;2023-07-02T09:04:25;22.10;1.00
2851;DHT22;1433;49.976;8.342;2023-07-02T09:09:44;22.20;1.00
2851;DHT22;1433;49.976;8.342;2023-07-02T09:12:02;22.00;1.00
2851;DHT22;1433;49.976;8.342;2023-07-02T09:14:30;21.80;1.00
2851;DHT22;1433;49.976;8.342;2023-07-02T09:17:07;21.60;1.00
2851;DHT22;1433;49.976;8.342;2023-07-02T09:19:35;21.50;1.00
2851;DHT22;1433;49.976;8.342;2023-07-02T09:22:03;21.60;1.00
2851;DHT22;1433;49.976;8.342;2023-07-02T09:24:30;21.80;1.00
2851;DHT22;1433;49.976;8.342;2023-07-02T09:27:01;22.10;1.00
2851;DHT22;1433;49.976;8.342;2023-07-02T09:29:29;22.20;99.90
2851;DHT22;1433;49.976;8.342;2023-07-02T09:31:59;22.20;99.90
2851;DHT22;1433;49.976;8.342;2023-07-02T09:34:27;22.20;99.90
2851;DHT22;1433;49.976;8.342;2023-07-02T09:36:54;22.40;99.90
2851;DHT22;1433;49.976;8.342;2023-07-02T09:39:29;22.10;99.90
2851;DHT22;1433;49.976;8.342;2023-07-02T09:41:57;22.60;99.90
2851;DHT22;1433;49.976;8.342;2023-07-02T09:44:31;23.10;1.00
2851;DHT22;1433;49.976;8.342;2023-07-02T09:47:08;22.40;99.90
2851;DHT22;1433;49.976;8.342;2023-07-02T09:49:36;22.20;99.90
2851;DHT22;1433;49.976;8.342;2023-07-02T09:52:07;22.30;99.90
2851;DHT22;1433;49.976;8.342;2023-07-02T09:54:34;22.20;99.90
2851;DHT22;1433;49.976;8.342;2023-07-02T09:57:01;21.90;99.90
2851;DHT22;1433;49.976;8.342;2023-07-02T09:59:28;21.80;99.90
2851;DHT22;1433;49.976;8.342;2023-07-02T10:01:55;22.00;99.90
2851;DHT22;1433;49.976;8.342;2023-07-02T10:04:22;22.40;99.90
2851;DHT22;1433;49.976;8.342;2023-07-02T10:06:53;22.70;99.90
2851;DHT22;1433;49.976;8.342;2023-07-02T10:09:21;23.10;99.90
2851;DHT22;1433;49.976;8.342;2023-07-02T10:11:48;23.00;99.90
2851;DHT22;1433;49.976;8.342;2023-07-02T10:14:14;23.10;99.90
2851;DHT22;1433;49.976;8.342;2023-07-02T10:16:51;22.90;99.90
2851;DHT22;1433;49.976;8.342;2023-07-02T10:19:18;22.80;99.90
2851;DHT22;1433;49.976;8.342;2023-07-02T10:21:44;23.00;99.90
2851;DHT22;1433;49.976;8.342;2023-07-02T10:24:13;22.60;99.90
2851;DHT22;1433;49.976;8.342;2023-07-02T10:29:26;22.30;99.90
2851;DHT22;1433;49.976;8.342;2023-07-02T10:31:56;22.80;99.90
2851;DHT22;1433;49.976;8.342;2023-07-02T10:34:34;23.50;99.90
2851;DHT22;1433;49.976;8.342;2023-07-02T10:37:02;23.90;1.00
2851;DHT22;1433;49.976;8.342;2023-07-02T10:39:29;24.10;1.00
2851;DHT22;1433;49.976;8.342;2023-07-02T10:42:09;23.70;99.90
2851;DHT22;1433;49.976;8.342;2023-07-02T10:44:50;23.30;1.00
2851;DHT22;1433;49.976;8.342;2023-07-02T10:47:14;23.20;99.90
2851;DHT22;1433;49.976;8.342;2023-07-02T10:49:40;23.10;99.90
2851;DHT22;1433;49.976;8.342;2023-07-02T10:52:07;22.90;99.90
2851;DHT22;1433;49.976;8.342;2023-07-02T10:54:49;22.80;99.90
2851;DHT22;1433;49.976;8.342;2023-07-02T10:57:13;23.50;99.90
2851;DHT22;1433;49.976;8.342;2023-07-02T10:59:42;25.30;99.90
2851;DHT22;1433;49.976;8.342;2023-07-02T11:02:08;25.30;99.90
2851;DHT22;1433;49.976;8.342;2023-07-02T11:04:36;25.30;99.90
2851;DHT22;1433;49.976;8.342;2023-07-02T11:07:04;25.70;99.90
2851;DHT22;1433;49.976;8.342;2023-07-02T11:09:30;25.40;99.90
2851;DHT22;1433;49.976;8.342;2023-07-02T11:11:59;26.50;99.90
2851;DHT22;1433;49.976;8.342;2023-07-02T11:16:56;26.20;99.90
2851;DHT22;1433;49.976;8.342;2023-07-02T11:19:22;25.30;99.90
2851;DHT22;1433;49.976;8.342;2023-07-02T11:21:53;24.20;83.60
2851;DHT22;1433;49.976;8.342;2023-07-02T11:24:36;23.70;66.60
2851;DHT22;1433;49.976;8.342;2023-07-02T11:27:04;23.80;85.00
2851;DHT22;1433;49.976;8.342;2023-07-02T11:29:34;24.40;84.30
2851;DHT22;1433;49.976;8.342;2023-07-02T11:32:05;25.60;99.90
2851;DHT22;1433;49.976;8.342;2023-07-02T11:34:31;25.10;99.90
2851;DHT22;1433;49.976;8.342;2023-07-02T11:36:58;24.50;99.90
2851;DHT22;1433;49.976;8.342;2023-07-02T11:39:24;24.10;99.90
2851;DHT22;1433;49.976;8.342;2023-07-02T11:41:50;24.90;99.90
2851;DHT22;1433;49.976;8.342;2023-07-02T11:44:16;24.90;99.90
2851;DHT22;1433;49.976;8.342;2023-07-02T11:46:44;24.80;99.90
2851;DHT22;1433;49.976;8.342;2023-07-02T11:49:10;24.50;99.90
2851;DHT22;1433;49.976;8.342;2023-07-02T11:51:36;25.20;99.90
2851;DHT22;1433;49.976;8.342;2023-07-02T11:54:04;25.40;99.90
2851;DHT22;1433;49.976;8.342;2023-07-02T11:56:31;25.70;99.90
2851;DHT22;1433;49.976;8.342;2023-07-02T11:58:57;25.10;99.90
2851;DHT22;1433;49.976;8.342;2023-07-02T12:01:23;24.90;99.90
2851;DHT22;1433;49.976;8.342;2023-07-02T12:03:50;25.30;99.90
2851;DHT22;1433;49.976;8.342;2023-07-02T12:06:16;24.50;99.90
2851;DHT22;1433;49.976;8.342;2023-07-02T12:08:42;24.50;99.90
2851;DHT22;1433;49.976;8.342;2023-07-02T12:11:08;24.70;99.90
2851;DHT22;1433;49.976;8.342;2023-07-02T12:13:35;25.10;99.90
2851;DHT22;1433;49.976;8.342;2023-07-02T12:16:01;25.10;99.90
2851;DHT22;1433;49.976;8.342;2023-07-02T12:18:27;24.70;99.90
2851;DHT22;1433;49.976;8.342;2023-07-02T12:20:54;24.40;99.90
2851;DHT22;1433;49.976;8.342;2023-07-02T12:23:20;24.00;99.90
2851;DHT22;1433;49.976;8.342;2023-07-02T12:25:46;24.30;99.90
2851;DHT22;1433;49.976;8.342;2023-07-02T12:28:14;24.40;99.90
2851;DHT22;1433;49.976;8.342;2023-07-02T12:30:41;24.70;99.90
2851;DHT22;1433;49.976;8.342;2023-07-02T12:33:07;24.90;99.90
2851;DHT22;1433;49.976;8.342;2023-07-02T12:35:33;24.90;99.90
2851;DHT22;1433;49.976;8.342;2023-07-02T12:37:59;24.60;99.90
2851;DHT22;1433;49.976;8.342;2023-07-02T12:40:26;24.70;99.90
2851;DHT22;1433;49.976;8.342;2023-07-02T12:42:52;24.20;99.90
2851;DHT22;1433;49.976;8.342;2023-07-02T12:45:18;24.30;99.90
2851;DHT22;1433;49.976;8.342;2023-07-02T12:47:45;24.80;99.90
2851;DHT22;1433;49.976;8.342;2023-07-02T12:50:11;25.10;99.90
2851;DHT22;1433;49.976;8.342;2023-07-02T12:52:38;25.20;99.90
2851;DHT22;1433;49.976;8.342;2023-07-02T12:55:04;25.10;99.90
2851;DHT22;1433;49.976;8.342;2023-07-02T12:57:32;24.90;99.90
2851;DHT22;1433;49.976;8.342;2023-07-02T12:59:58;25.10;99.90
2851;DHT22;1433;49.976;8.342;2023-07-02T13:02:24;25.00;99.90
2851;DHT22;1433;49.976;8.342;2023-07-02T13:04:50;24.60;99.90
2851;DHT22;1433;49.976;8.342;2023-07-02T13:07:17;25.20;99.90
2851;DHT22;1433;49.976;8.342;2023-07-02T13:09:43;26.50;99.90
2851;DHT22;1433;49.976;8.342;2023-07-02T13:12:10;26.40;99.90
2851;DHT22;1433;49.976;8.342;2023-07-02T13:14:37;26.00;99.90
2851;DHT22;1433;49.976;8.342;2023-07-02T13:17:04;25.80;99.90
2851;DHT22;1433;49.976;8.342;2023-07-02T13:19:42;26.10;99.90
2851;DHT22;1433;49.976;8.342;2023-07-02T13:22:08;26.60;1.00
2851;DHT22;1433;49.976;8.342;2023-07-02T13:24:34;26.60;99.90
2851;DHT22;1433;49.976;8.342;2023-07-02T13:27:03;26.70;99.90
2851;DHT22;1433;49.976;8.342;2023-07-02T13:29:30;27.00;99.90
2851;DHT22;1433;49.976;8.342;2023-07-02T13:31:56;26.60;1.00
2851;DHT22;1433;49.976;8.342;2023-07-02T13:34:23;26.10;99.90
2851;DHT22;1433;49.976;8.342;2023-07-02T13:36:50;25.80;1.00
2851;DHT22;1433;49.976;8.342;2023-07-02T13:39:16;25.80;99.90
2851;DHT22;1433;49.976;8.342;2023-07-02T13:41:42;26.30;99.90
2851;DHT22;1433;49.976;8.342;2023-07-02T13:44:08;27.00;1.00
2851;DHT22;1433;49.976;8.342;2023-07-02T13:46:34;26.40;99.90
2851;DHT22;1433;49.976;8.342;2023-07-02T13:49:01;25.70;99.90
2851;DHT22;1433;49.976;8.342;2023-07-02T13:51:27;25.30;99.90
2851;DHT22;1433;49.976;8.342;2023-07-02T13:53:54;25.60;99.90
2851;DHT22;1433;49.976;8.342;2023-07-02T13:56:35;25.60;99.90
2851;DHT22;1433;49.976;8.342;2023-07-02T13:59:02;25.80;99.90
2851;DHT22;1433;49.976;8.342;2023-07-02T14:01:30;25.90;99.90
2851;DHT22;1433;49.976;8.342;2023-07-02T14:03:56;26.50;99.90
2851;DHT22;1433;49.976;8.342;2023-07-02T14:06:22;26.00;99.90
2851;DHT22;1433;49.976;8.342;2023-07-02T14:08:48;25.80;99.90
2851;DHT22;1433;49.976;8.342;2023-07-02T14:11:15;26.50;99.90
2851;DHT22;1433;49.976;8.342;2023-07-02T14:13:41;27.10;1.00
2851;DHT22;1433;49.976;8.342;2023-07-02T14:16:07;26.50;1.00
2851;DHT22;1433;49.976;8.342;2023-07-02T14:18:33;27.00;99.90
2851;DHT22;1433;49.976;8.342;2023-07-02T14:21:00;26.80;1.00
2851;DHT22;1433;49.976;8.342;2023-07-02T14:23:27;26.50;99.90
2851;DHT22;1433;49.976;8.342;2023-07-02T14:25:53;26.30;1.00
2851;DHT22;1433;49.976;8.342;2023-07-02T14:28:19;25.00;99.90
2851;DHT22;1433;49.976;8.342;2023-07-02T14:30:47;25.50;1.00
2851;DHT22;1433;49.976;8.342;2023-07-02T14:33:14;25.40;1.00
2851;DHT22;1433;49.976;8.342;2023-07-02T14:35:41;25.80;1.00
2851;DHT22;1433;49.976;8.342;2023-07-02T14:38:07;25.80;1.00
2851;DHT22;1433;49.976;8.342;2023-07-02T14:40:33;25.30;1.00
2851;DHT22;1433;49.976;8.342;2023-07-02T14:42:59;25.20;1.00
2851;DHT22;1433;49.976;8.342;2023-07-02T14:45:25;25.10;99.90
2851;DHT22;1433;49.976;8.342;2023-07-02T14:47:52;26.70;99.90
2851;DHT22;1433;49.976;8.342;2023-07-02T14:50:18;26.70;99.90
2851;DHT22;1433;49.976;8.342;2023-07-02T14:52:44;27.20;99.90
2851;DHT22;1433;49.976;8.342;2023-07-02T14:55:10;26.30;99.90
2851;DHT22;1433;49.976;8.342;2023-07-02T14:57:44;27.10;1.00
2851;DHT22;1433;49.976;8.342;2023-07-02T15:00:11;27.10;1.00
2851;DHT22;1433;49.976;8.342;2023-07-02T15:02:37;27.80;1.00
2851;DHT22;1433;49.976;8.342;2023-07-02T15:05:04;27.70;1.00
2851;DHT22;1433;49.976;8.342;2023-07-02T15:07:30;27.40;1.00
2851;DHT22;1433;49.976;8.342;2023-07-02T15:09:56;26.30;1.00
2851;DHT22;1433;49.976;8.342;2023-07-02T15:12:23;25.80;1.00
2851;DHT22;1433;49.976;8.342;2023-07-02T15:14:49;26.00;1.00
2851;DHT22;1433;49.976;8.342;2023-07-02T15:17:15;25.00;1.00
2851;DHT22;1433;49.976;8.342;2023-07-02T15:19:41;25.00;1.00
2851;DHT22;1433;49.976;8.342;2023-07-02T15:22:07;25.30;1.00
2851;DHT22;1433;49.976;8.342;2023-07-02T15:24:33;25.20;1.00
2851;DHT22;1433;49.976;8.342;2023-07-02T15:26:59;25.50;1.00
2851;DHT22;1433;49.976;8.342;2023-07-02T15:29:25;26.50;1.00
2851;DHT22;1433;49.976;8.342;2023-07-02T15:31:52;27.10;1.00
2851;DHT22;1433;49.976;8.342;2023-07-02T15:34:18;27.60;1.00
2851;DHT22;1433;49.976;8.342;2023-07-02T15:36:45;26.70;1.00
2851;DHT22;1433;49.976;8.342;2023-07-02T15:39:11;27.10;1.00
2851;DHT22;1433;49.976;8.342;2023-07-02T15:41:37;26.70;1.00
2851;DHT22;1433;49.976;8.342;2023-07-02T15:44:05;26.60;1.00
2851;DHT22;1433;49.976;8.342;2023-07-02T15:46:32;25.90;1.00
2851;DHT22;1433;49.976;8.342;2023-07-02T15:49:00;25.70;1.00
2851;DHT22;1433;49.976;8.342;2023-07-02T15:51:28;26.20;1.00
2851;DHT22;1433;49.976;8.342;2023-07-02T15:53:54;26.30;1.00
2851;DHT22;1433;49.976;8.342;2023-07-02T15:56:21;25.80;1.00
2851;DHT22;1433;49.976;8.342;2023-07-02T15:58:48;25.40;1.00
2851;DHT22;1433;49.976;8.342;2023-07-02T16:01:16;25.40;1.00
2851;DHT22;1433;49.976;8.342;2023-07-02T16:03:43;25.70;1.00
2851;DHT22;1433;49.976;8.342;2023-07-02T16:06:12;26.70;1.00
2851;DHT22;1433;49.976;8.342;2023-07-02T16:08:39;27.00;1.00
2851;DHT22;1433;49.976;8.342;2023-07-02T16:11:07;27.00;1.00
2851;DHT22;1433;49.976;8.342;2023-07-02T16:13:40;25.90;1.00
2851;DHT22;1433;49.976;8.342;2023-07-02T16:16:07;25.70;1.00
2851;DHT22;1433;49.976;8.342;2023-07-02T16:18:33;26.80;1.00